TAF and METAR

METAR for Heidrun

ENHE 242350Z 30006KT 9999 OVC020 09/05 Q1030 W///S3
Report created 25. jun 01:50
wind 6 knots from WNW (300°) visibility > 10km overcast at 2000 feet Temperature 9° with dewpoint at 5° (Humidity 76.02%) Pressure 1030 hPa

TAF for Heidrun

TAF ENHE 242300Z 2500/2509 30005KT 9999 BKN025
Report created 25. jun 01:00

between 25. jun 02:00 - 25. jun 11:00

wind 5 knots from WNW (300°) visibility > 10km broken clouds (~75% cover) at 2500 feet